Time;durP1;ratioP1;P1;durP2;ratioP2;P2;SDS_P1;SDS_P2;PMS_P1;PMS_P2;Temp;Humidity;BMP_temperature;BMP_pressure;BME280_temperature;BME280_humidity;BME280_pressure;Samples;Min_cycle;Max_cycle;Signal;HPM_P1;HPM_P2
2022/04/03 00:00:00;;;;;;;3.72;2.78;;;;;;;0.13;92.29;102301.06;6110197;23;19997;-78
2022/04/03 00:02:31;;;;;;;3.78;2.63;;;;;;;0.09;92.67;102296.47;6134058;23;20028;-78
2022/04/03 00:04:59;;;;;;;3.13;2.80;;;;;;;0.06;93.12;102298.84;6161041;23;20040;-80
2022/04/03 00:07:27;;;;;;;4.03;2.95;;;;;;;0.02;93.06;102292.56;6147798;23;20017;-79
2022/04/03 00:09:56;;;;;;;2.92;2.45;;;;;;;-0.03;93.53;102300.00;6161397;23;20028;-78
2022/04/03 00:12:25;;;;;;;3.90;3.47;;;;;;;-0.07;93.74;102300.59;6129798;23;20482;-79
2022/04/03 00:14:53;;;;;;;4.45;2.90;;;;;;;-0.10;92.90;102299.47;6159540;23;20021;-78
2022/04/03 00:17:21;;;;;;;5.57;3.30;;;;;;;-0.12;94.27;102307.13;6134732;23;20021;-80
2022/04/03 00:19:50;;;;;;;4.70;3.10;;;;;;;-0.15;93.69;102300.84;6136651;23;20024;-79
2022/04/03 00:22:18;;;;;;;4.50;3.08;;;;;;;-0.17;93.82;102295.56;6100084;23;20025;-79
2022/04/03 00:24:46;;;;;;;4.70;2.75;;;;;;;-0.19;93.92;102297.13;6136667;23;20021;-79
2022/04/03 00:27:15;;;;;;;4.70;3.25;;;;;;;-0.22;94.67;102287.47;6083563;23;20018;-80
2022/04/03 00:29:43;;;;;;;3.50;3.20;;;;;;;-0.21;94.81;102296.13;6138305;23;20330;-78
2022/04/03 00:32:12;;;;;;;3.70;3.00;;;;;;;-0.24;94.96;102288.16;6161200;23;20055;-79
2022/04/03 00:34:40;;;;;;;3.70;3.00;;;;;;;-0.27;94.81;102295.69;6101209;23;20073;-78
2022/04/03 00:37:08;;;;;;;4.40;2.65;;;;;;;-0.31;95.63;102289.41;6111915;23;20018;-79
2022/04/03 00:39:37;;;;;;;7.88;3.20;;;;;;;-0.32;95.14;102294.47;6098755;23;20207;-78
2022/04/03 00:42:09;;;;;;;4.68;2.92;;;;;;;-0.36;94.99;102284.69;6160825;23;20025;-79
2022/04/03 00:44:38;;;;;;;2.90;2.67;;;;;;;-0.40;95.65;102283.56;6122753;23;20021;-79
2022/04/03 00:47:07;;;;;;;3.28;2.97;;;;;;;-0.44;95.40;102287.63;6161221;23;20052;-79
2022/04/03 00:49:36;;;;;;;2.70;2.50;;;;;;;-0.45;95.64;102293.63;6150181;23;20639;-78
2022/04/03 00:52:05;;;;;;;5.07;2.58;;;;;;;-0.49;96.15;102289.03;6114842;23;20017;-79
2022/04/03 00:54:34;;;;;;;3.97;3.17;;;;;;;-0.52;95.79;102278.44;6138830;23;20360;-78
2022/04/03 00:57:05;;;;;;;4.22;2.95;;;;;;;-0.55;96.23;102280.78;6111154;23;20021;-79
2022/04/03 00:59:34;;;;;;;4.05;2.78;;;;;;;-0.58;96.10;102279.69;6135640;23;20395;-78
2022/04/03 01:02:04;;;;;;;4.70;2.97;;;;;;;-0.61;96.56;102281.25;6151199;23;20545;-74
2022/04/03 01:04:32;;;;;;;5.47;2.67;;;;;;;-0.64;96.99;102280.16;6123003;23;20482;-74
2022/04/03 01:07:01;;;;;;;4.97;2.90;;;;;;;-0.67;97.04;102277.34;6126287;23;20250;-74
2022/04/03 01:09:30;;;;;;;3.28;2.97;;;;;;;-0.69;96.86;102276.34;6107502;23;20248;-74
2022/04/03 01:11:58;;;;;;;3.28;2.97;;;;;;;-0.70;97.72;102279.69;6122703;23;20022;-74
2022/04/03 01:14:43;;;;;;;3.13;2.75;;;;;;;-0.71;97.97;102273.63;6118179;23;20018;-74
2022/04/03 01:17:13;;;;;;;4.38;3.42;;;;;;;-0.72;97.82;102273.50;6098674;23;20022;-73
2022/04/03 01:19:42;;;;;;;3.15;2.85;;;;;;;-0.72;97.98;102279.59;6099831;23;20018;-73
2022/04/03 01:22:12;;;;;;;6.55;3.13;;;;;;;-0.74;98.43;102275.09;6122299;23;20014;-73
2022/04/03 01:24:44;;;;;;;3.70;2.63;;;;;;;-0.77;98.06;102268.03;6069147;23;20025;-73
2022/04/03 01:27:12;;;;;;;8.80;3.05;;;;;;;-0.77;98.44;102275.78;6122562;23;20351;-73
2022/04/03 01:29:41;;;;;;;2.80;2.60;;;;;;;-0.77;98.37;102277.50;6096554;23;20208;-74
2022/04/03 01:32:10;;;;;;;3.17;2.97;;;;;;;-0.77;98.43;102278.38;6122011;23;20025;-74
2022/04/03 01:34:41;;;;;;;6.20;2.60;;;;;;;-0.75;98.98;102275.91;6123224;23;20017;-74
2022/04/03 01:37:09;;;;;;;4.68;2.55;;;;;;;-0.75;99.85;102270.72;6069239;23;20022;-74
2022/04/03 01:39:38;;;;;;;4.05;2.83;;;;;;;-0.73;99.73;102269.16;6099646;23;20026;-74
2022/04/03 01:42:06;;;;;;;4.63;2.58;;;;;;;-0.70;99.81;102262.50;6092711;23;20232;-74
2022/04/03 01:44:36;;;;;;;4.63;2.78;;;;;;;-0.65;100.00;102258.53;6098789;23;20355;-74
2022/04/03 01:47:04;;;;;;;5.70;2.42;;;;;;;-0.62;99.93;102253.59;6068948;23;20388;-74
2022/04/03 01:49:33;;;;;;;4.82;2.58;;;;;;;-0.58;100.00;102256.41;6126552;23;20025;-74
2022/04/03 01:52:01;;;;;;;3.72;2.92;;;;;;;-0.57;100.00;102248.72;6122537;23;20148;-74
2022/04/03 01:54:30;;;;;;;4.50;3.10;;;;;;;-0.57;100.00;102253.00;6084992;23;20356;-73
2022/04/03 01:56:58;;;;;;;5.63;3.00;;;;;;;-0.56;100.00;102250.53;6122008;23;20017;-73
2022/04/03 01:59:27;;;;;;;3.97;2.72;;;;;;;-0.58;100.00;102246.94;6096132;23;20022;-74
2022/04/03 02:01:56;;;;;;;7.60;3.05;;;;;;;-0.57;100.00;102258.19;6094128;23;20251;-74
2022/04/03 02:04:24;;;;;;;2.78;2.58;;;;;;;-0.56;100.00;102262.59;6126886;23;20032;-75
2022/04/03 02:06:53;;;;;;;2.83;2.50;;;;;;;-0.52;100.00;102255.13;6122235;23;20018;-75
2022/04/03 02:09:21;;;;;;;3.42;3.08;;;;;;;-0.46;100.00;102257.25;6078903;23;20025;-73
2022/04/03 02:11:50;;;;;;;4.07;2.80;;;;;;;-0.42;100.00;102248.91;6075762;23;20014;-74
2022/04/03 02:14:24;;;;;;;3.33;3.03;;;;;;;-0.39;100.00;102249.13;6098882;23;20026;-74
2022/04/03 02:16:54;;;;;;;4.70;2.60;;;;;;;-0.37;100.00;102244.94;6043443;23;20026;-73
2022/04/03 02:19:23;;;;;;;3.00;2.37;;;;;;;-0.31;100.00;102255.72;6124736;23;20022;-73
2022/04/03 02:21:52;;;;;;;3.67;2.72;;;;;;;-0.25;100.00;102252.66;6121474;23;20049;-74
2022/04/03 02:24:20;;;;;;;2.67;2.47;;;;;;;-0.17;100.00;102259.31;6124891;23;20022;-73
2022/04/03 02:26:49;;;;;;;2.55;2.28;;;;;;;-0.12;100.00;102252.72;6085394;23;20036;-73
2022/04/03 02:29:17;;;;;;;3.90;2.20;;;;;;;-0.03;100.00;102266.31;6122792;23;20514;-73
2022/04/03 02:31:48;;;;;;;4.05;2.72;;;;;;;0.07;100.00;102256.59;6124696;23;20017;-74
2022/04/03 02:34:17;;;;;;;2.28;2.13;;;;;;;0.13;100.00;102257.91;6124009;23;20018;-74
2022/04/03 02:36:46;;;;;;;2.28;2.17;;;;;;;0.17;100.00;102246.03;6124601;23;20022;-74
2022/04/03 02:39:15;;;;;;;1.95;1.80;;;;;;;0.23;100.00;102235.16;6125857;23;20455;-73
2022/04/03 02:41:43;;;;;;;5.72;1.77;;;;;;;0.27;100.00;102225.13;6111058;23;20022;-74
2022/04/03 02:44:13;;;;;;;2.63;1.30;;;;;;;0.34;100.00;102214.38;6125113;23;20675;-74
2022/04/03 02:46:42;;;;;;;4.30;1.42;;;;;;;0.44;100.00;102220.19;6119530;23;20029;-74
2022/04/03 02:49:10;;;;;;;1.10;1.10;;;;;;;0.51;100.00;102219.75;6123533;23;20022;-74
2022/04/03 02:51:39;;;;;;;1.55;1.30;;;;;;;0.62;100.00;102228.25;6113746;23;20026;-75
2022/04/03 02:54:08;;;;;;;3.47;1.52;;;;;;;0.67;100.00;102222.56;6125785;23;20033;-74
2022/04/03 02:56:36;;;;;;;1.15;1.15;;;;;;;0.73;100.00;102230.75;6077818;23;20030;-74
2022/04/03 02:59:05;;;;;;;2.70;1.30;;;;;;;0.75;100.00;102226.56;6120606;23;20155;-74
2022/04/03 03:01:33;;;;;;;1.40;1.30;;;;;;;0.78;100.00;102228.47;6118936;23;20413;-74
2022/04/03 03:04:01;;;;;;;1.30;1.20;;;;;;;0.82;100.00;102224.38;6155742;23;20017;-73
2022/04/03 03:06:30;;;;;;;1.40;1.30;;;;;;;0.85;100.00;102216.78;6157039;23;20451;-73
2022/04/03 03:08:59;;;;;;;2.08;1.27;;;;;;;0.86;100.00;102216.88;6106683;23;20218;-73
2022/04/03 03:11:28;;;;;;;2.15;1.30;;;;;;;0.88;100.00;102206.59;6147468;23;20044;-73
2022/04/03 03:13:57;;;;;;;1.38;1.23;;;;;;;0.88;100.00;102210.09;6181223;23;20048;-75
2022/04/03 03:16:25;;;;;;;1.40;1.30;;;;;;;0.89;100.00;102208.38;6155342;23;20024;-73
2022/04/03 03:18:54;;;;;;;2.00;1.50;;;;;;;0.91;100.00;102205.09;6130279;23;20048;-73
2022/04/03 03:21:22;;;;;;;1.50;1.40;;;;;;;0.93;100.00;102206.09;6182588;23;20023;-73
2022/04/03 03:23:50;;;;;;;3.78;1.92;;;;;;;0.94;100.00;102205.28;6155294;23;20025;-73
2022/04/03 03:26:20;;;;;;;3.92;1.40;;;;;;;0.95;100.00;102199.31;6146664;23;20032;-73
2022/04/03 03:28:48;;;;;;;3.28;1.35;;;;;;;0.96;100.00;102193.31;6155961;23;20021;-73
2022/04/03 03:31:17;;;;;;;1.60;1.40;;;;;;;0.96;100.00;102197.59;6157285;23;20025;-73
2022/04/03 03:33:47;;;;;;;2.25;1.30;;;;;;;0.97;100.00;102194.22;6156462;23;20021;-74
2022/04/03 03:36:16;;;;;;;2.58;1.63;;;;;;;0.95;100.00;102191.50;6098564;23;20031;-74
2022/04/03 03:38:46;;;;;;;1.77;1.30;;;;;;;0.94;100.00;102191.41;6150356;23;20020;-74
2022/04/03 03:41:14;;;;;;;1.65;1.42;;;;;;;0.94;100.00;102188.81;6156325;23;20439;-74
2022/04/03 03:43:43;;;;;;;2.33;1.50;;;;;;;0.94;100.00;102183.63;6144703;23;20226;-74
2022/04/03 03:46:12;;;;;;;2.22;1.80;;;;;;;0.92;100.00;102185.22;6159507;23;20017;-74
2022/04/03 03:48:40;;;;;;;4.53;1.90;;;;;;;0.89;100.00;102183.34;6153233;23;20016;-74
2022/04/03 03:51:09;;;;;;;1.25;1.25;;;;;;;0.85;100.00;102183.03;6135927;23;20024;-74
2022/04/03 03:53:38;;;;;;;2.60;1.50;;;;;;;0.83;100.00;102188.13;6178322;23;20136;-74
2022/04/03 03:56:06;;;;;;;2.90;1.60;;;;;;;0.81;100.00;102181.94;6134808;23;20347;-74
2022/04/03 03:58:35;;;;;;;4.88;2.00;;;;;;;0.82;100.00;102195.84;6141125;23;20021;-74
2022/04/03 04:01:03;;;;;;;2.53;1.67;;;;;;;0.85;100.00;102221.97;6178278;23;20193;-74
2022/04/03 04:03:32;;;;;;;2.58;1.55;;;;;;;0.87;100.00;102235.94;6104364;23;20218;-74
2022/04/03 04:06:00;;;;;;;4.22;1.40;;;;;;;0.87;100.00;102231.66;6126400;23;20470;-73
2022/04/03 04:08:28;;;;;;;3.15;1.70;;;;;;;0.88;100.00;102220.47;6124901;23;20017;-73
2022/04/03 04:10:58;;;;;;;1.60;1.50;;;;;;;0.90;100.00;102205.00;6161588;23;20402;-73
2022/04/03 04:13:32;;;;;;;3.92;2.13;;;;;;;0.89;100.00;102198.00;6133091;23;20239;-73
2022/04/03 04:16:01;;;;;;;3.55;1.60;;;;;;;0.88;100.00;102198.81;6074355;23;20021;-73
2022/04/03 04:18:30;;;;;;;3.00;1.77;;;;;;;0.87;100.00;102197.00;6152586;23;20054;-73
2022/04/03 04:20:58;;;;;;;2.17;1.45;;;;;;;0.83;100.00;102192.41;6151115;23;20021;-73
2022/04/03 04:23:27;;;;;;;1.77;1.40;;;;;;;0.82;100.00;102206.22;6154140;23;20024;-73
2022/04/03 04:25:55;;;;;;;2.45;1.63;;;;;;;0.78;100.00;102194.75;6153808;23;20024;-73
2022/04/03 04:28:24;;;;;;;2.17;1.98;;;;;;;0.73;100.00;102197.00;6170878;23;20025;-73
2022/04/03 04:30:54;;;;;;;3.80;1.67;;;;;;;0.72;100.00;102194.34;6160802;23;20024;-74
2022/04/03 04:33:24;;;;;;;2.47;1.70;;;;;;;0.69;100.00;102192.44;6119275;23;20024;-73
2022/04/03 04:35:53;;;;;;;8.30;2.33;;;;;;;0.68;100.00;102192.31;6159720;23;20017;-74
2022/04/03 04:38:21;;;;;;;2.42;1.63;;;;;;;0.65;100.00;102195.63;6183336;23;20025;-74
2022/04/03 04:40:50;;;;;;;2.53;1.67;;;;;;;0.63;100.00;102188.56;6185081;23;20359;-73
2022/04/03 04:43:18;;;;;;;1.60;1.50;;;;;;;0.59;100.00;102192.66;6172827;23;20339;-73
2022/04/03 04:45:46;;;;;;;3.15;1.75;;;;;;;0.55;100.00;102191.53;6158714;23;20127;-75
2022/04/03 04:48:16;;;;;;;2.03;1.73;;;;;;;0.52;100.00;102187.84;6149074;23;20017;-73
2022/04/03 04:50:45;;;;;;;5.63;1.95;;;;;;;0.51;100.00;102191.22;6155578;23;20232;-74
2022/04/03 04:53:13;;;;;;;3.10;1.80;;;;;;;0.48;100.00;102194.53;6187043;23;20021;-75
2022/04/03 04:55:42;;;;;;;3.00;2.05;;;;;;;0.48;100.00;102197.13;6155183;23;20032;-75
2022/04/03 04:58:10;;;;;;;2.42;1.88;;;;;;;0.48;100.00;102204.91;6123264;23;20032;-75
2022/04/03 05:00:39;;;;;;;2.13;1.70;;;;;;;0.50;100.00;102195.53;6132427;23;20227;-73
2022/04/03 05:03:07;;;;;;;2.25;1.77;;;;;;;0.52;100.00;102201.72;6161297;23;20016;-73
2022/04/03 05:05:36;;;;;;;4.05;1.85;;;;;;;0.53;100.00;102202.59;6176243;23;20258;-75
2022/04/03 05:08:05;;;;;;;1.80;1.70;;;;;;;0.54;100.00;102196.63;6150932;23;20013;-74
2022/04/03 05:10:33;;;;;;;4.85;1.83;;;;;;;0.55;100.00;102194.13;6148613;23;20501;-74
2022/04/03 05:13:02;;;;;;;2.72;1.52;;;;;;;0.55;100.00;102194.13;6161964;23;20024;-73
2022/04/03 05:15:30;;;;;;;2.40;1.63;;;;;;;0.55;100.00;102196.75;6130804;23;20241;-73
2022/04/03 05:17:59;;;;;;;3.40;1.90;;;;;;;0.56;100.00;102197.63;6113469;23;20021;-73
2022/04/03 05:20:33;;;;;;;3.13;2.35;;;;;;;0.57;100.00;102208.09;6116557;23;20021;-73
2022/04/03 05:23:02;;;;;;;4.13;2.20;;;;;;;0.61;100.00;102201.44;6137215;23;20021;-73
2022/04/03 05:25:30;;;;;;;4.22;2.35;;;;;;;0.64;100.00;102201.59;6152961;23;20232;-73
2022/04/03 05:27:58;;;;;;;2.25;2.10;;;;;;;0.65;100.00;102198.22;6152634;23;20024;-73
2022/04/03 05:30:27;;;;;;;2.65;2.40;;;;;;;0.67;100.00;102200.94;6144059;23;20327;-75
2022/04/03 05:32:55;;;;;;;5.55;2.90;;;;;;;0.67;100.00;102204.41;6138375;23;20346;-74
2022/04/03 05:35:24;;;;;;;7.57;2.67;;;;;;;0.68;100.00;102202.69;6153743;23;20018;-73
2022/04/03 05:37:52;;;;;;;2.33;2.13;;;;;;;0.69;100.00;102204.53;6134292;23;20021;-73
2022/04/03 05:40:20;;;;;;;2.83;2.60;;;;;;;0.69;100.00;102197.63;6158204;23;20545;-73
2022/04/03 05:42:49;;;;;;;2.50;2.30;;;;;;;0.70;100.00;102201.09;6156848;23;20138;-74
2022/04/03 05:45:18;;;;;;;2.92;2.65;;;;;;;0.69;100.00;102201.91;6146306;23;20470;-74
2022/04/03 05:47:46;;;;;;;2.22;2.13;;;;;;;0.66;100.00;102204.31;6158981;23;20040;-74
2022/04/03 05:50:15;;;;;;;2.17;2.05;;;;;;;0.64;100.00;102200.72;6186129;23;20020;-74
2022/04/03 05:52:46;;;;;;;3.15;2.20;;;;;;;0.62;100.00;102197.13;6118049;23;20246;-73
2022/04/03 05:55:20;;;;;;;2.72;2.33;;;;;;;0.60;100.00;102197.03;6159780;23;20013;-74
2022/04/03 05:57:52;;;;;;;4.78;2.38;;;;;;;0.61;100.00;102204.03;6156222;23;20021;-73
2022/04/03 06:00:22;;;;;;;2.63;2.42;;;;;;;0.60;100.00;102198.72;6178627;23;20021;-73
2022/04/03 06:02:52;;;;;;;2.38;2.17;;;;;;;0.60;100.00;102202.22;6097286;23;20036;-73
2022/04/03 06:05:22;;;;;;;2.50;2.40;;;;;;;0.63;100.00;102193.75;6185662;23;20021;-73
2022/04/03 06:07:51;;;;;;;2.95;2.67;;;;;;;0.66;100.00;102204.31;6157368;23;20248;-73
2022/04/03 06:10:21;;;;;;;5.00;2.80;;;;;;;0.68;100.00;102195.84;6149934;23;20021;-73
2022/04/03 06:12:52;;;;;;;5.78;3.00;;;;;;;0.70;100.00;102202.03;6159085;23;20017;-73
2022/04/03 06:15:22;;;;;;;4.90;2.90;;;;;;;0.71;100.00;102203.81;6148271;23;20024;-73
2022/04/03 06:17:51;;;;;;;5.00;2.50;;;;;;;0.75;100.00;102205.78;6151842;23;20108;-73
2022/04/03 06:20:23;;;;;;;3.17;2.15;;;;;;;0.77;100.00;102201.59;6158602;23;20021;-73
2022/04/03 06:22:51;;;;;;;4.90;2.28;;;;;;;0.82;100.00;102195.84;6156372;23;20021;-73
2022/04/03 06:25:21;;;;;;;4.57;2.88;;;;;;;0.87;100.00;102205.72;6134015;23;20013;-73
2022/04/03 06:27:52;;;;;;;4.88;2.53;;;;;;;0.93;100.00;102200.91;6158710;23;20243;-73
2022/04/03 06:30:22;;;;;;;3.90;2.17;;;;;;;0.99;100.00;102213.38;6149422;23;20025;-74
2022/04/03 06:32:53;;;;;;;3.08;2.40;;;;;;;1.05;100.00;102208.56;6184742;23;20028;-73
2022/04/03 06:35:21;;;;;;;3.97;2.45;;;;;;;1.11;100.00;102208.94;6133838;23;20012;-75
2022/04/03 06:37:49;;;;;;;3.90;2.40;;;;;;;1.19;100.00;102208.53;6156991;23;20021;-73
2022/04/03 06:40:18;;;;;;;2.15;1.95;;;;;;;1.28;100.00;102216.91;6159208;23;20027;-74
2022/04/03 06:42:47;;;;;;;4.10;2.17;;;;;;;1.41;100.00;102206.50;6100010;23;20474;-75
2022/04/03 06:45:16;;;;;;;5.55;2.15;;;;;;;1.87;100.00;102203.19;6183006;23;20028;-74
2022/04/03 06:47:45;;;;;;;3.90;1.98;;;;;;;2.34;100.00;102211.25;6119685;23;20021;-73
2022/04/03 06:50:14;;;;;;;2.08;1.83;;;;;;;2.90;100.00;102206.59;6160457;23;20465;-73
2022/04/03 06:52:42;;;;;;;2.80;2.13;;;;;;;3.52;100.00;102200.44;6132708;23;20299;-74
2022/04/03 06:55:12;;;;;;;2.97;2.22;;;;;;;3.79;100.00;102206.19;6156261;23;20025;-74
2022/04/03 06:57:41;;;;;;;1.73;1.70;;;;;;;3.76;100.00;102205.16;6121476;23;20029;-74
2022/04/03 07:00:13;;;;;;;4.05;1.90;;;;;;;3.70;100.00;102200.50;6184267;23;20020;-74
2022/04/03 07:02:41;;;;;;;4.50;2.22;;;;;;;3.62;100.00;102199.22;6169938;23;20223;-74
2022/04/03 07:05:10;;;;;;;2.25;2.03;;;;;;;3.50;100.00;102210.78;6111803;23;20025;-73
2022/04/03 07:07:38;;;;;;;3.15;1.80;;;;;;;3.42;100.00;102204.25;6156464;23;20024;-75
2022/04/03 07:10:09;;;;;;;3.55;1.98;;;;;;;3.42;100.00;102219.91;6133615;23;20017;-74
2022/04/03 07:12:38;;;;;;;2.83;1.98;;;;;;;3.42;100.00;102211.16;6182141;23;20543;-74
2022/04/03 07:15:12;;;;;;;3.95;1.70;;;;;;;3.41;100.00;102212.88;6186428;23;20017;-74
2022/04/03 07:17:44;;;;;;;6.95;2.30;;;;;;;3.37;100.00;102216.13;6140496;23;20548;-74
2022/04/03 07:20:15;;;;;;;3.35;1.70;;;;;;;3.34;100.00;102215.97;6155799;23;20017;-74
2022/04/03 07:22:44;;;;;;;4.13;2.75;;;;;;;3.30;100.00;102214.88;6179041;23;20032;-74
2022/04/03 07:25:14;;;;;;;3.45;1.77;;;;;;;3.27;100.00;102216.44;6146799;23;20013;-74
2022/04/03 07:27:43;;;;;;;9.40;2.28;;;;;;;3.24;100.00;102213.66;6123193;23;20118;-74
2022/04/03 07:30:12;;;;;;;2.45;2.22;;;;;;;3.20;100.00;102219.53;6186407;23;20028;-74
2022/04/03 07:32:41;;;;;;;4.35;2.92;;;;;;;3.20;100.00;102216.94;6094196;23;20328;-75
2022/04/03 07:35:11;;;;;;;7.63;2.15;;;;;;;3.24;100.00;102224.09;6169098;23;20028;-74
2022/04/03 07:37:40;;;;;;;2.53;2.15;;;;;;;3.29;100.00;102222.66;6097901;23;20025;-74
2022/04/03 07:40:09;;;;;;;3.88;2.58;;;;;;;3.34;100.00;102228.97;6130473;23;20038;-74
2022/04/03 07:42:39;;;;;;;2.88;2.20;;;;;;;3.41;100.00;102228.50;6126413;23;20524;-74
2022/04/03 07:45:08;;;;;;;6.20;2.05;;;;;;;3.49;100.00;102224.59;6183136;23;20021;-74
2022/04/03 07:47:47;;;;;;;2.63;2.05;;;;;;;3.58;100.00;102221.59;6151103;23;20025;-74
2022/04/03 07:50:18;;;;;;;3.40;2.05;;;;;;;3.83;100.00;102222.91;6170186;23;20020;-74
2022/04/03 07:52:48;;;;;;;5.10;2.20;;;;;;;4.22;100.00;102239.75;6104107;23;20351;-74
2022/04/03 07:55:17;;;;;;;2.20;1.50;;;;;;;4.65;100.00;102226.25;6158400;23;20028;-74
2022/04/03 07:57:45;;;;;;;6.55;1.30;;;;;;;5.00;100.00;102221.81;6154588;23;20020;-74
2022/04/03 08:00:15;;;;;;;2.55;1.30;;;;;;;5.36;100.00;102213.03;6134273;23;20013;-74
2022/04/03 08:02:43;;;;;;;4.78;1.20;;;;;;;5.63;100.00;102231.69;6180156;23;20025;-75
2022/04/03 08:05:13;;;;;;;1.20;1.08;;;;;;;5.93;100.00;102223.44;6143901;23;20228;-75
2022/04/03 08:07:46;;;;;;;6.07;1.70;;;;;;;6.22;100.00;102222.16;6129719;23;20017;-74
2022/04/03 08:10:23;;;;;;;6.32;1.48;;;;;;;6.49;100.00;102218.91;6123644;23;20025;-74
2022/04/03 08:12:52;;;;;;;2.25;1.25;;;;;;;6.67;100.00;102221.38;6149130;23;20466;-74
2022/04/03 08:15:20;;;;;;;2.70;1.30;;;;;;;6.89;100.00;102224.03;6182630;23;20024;-73
2022/04/03 08:17:49;;;;;;;2.58;1.10;;;;;;;7.08;100.00;102219.53;6124806;23;20017;-74
2022/04/03 08:20:18;;;;;;;3.85;1.70;;;;;;;7.07;100.00;102220.38;6158712;23;20020;-74
2022/04/03 08:22:48;;;;;;;2.53;1.40;;;;;;;6.85;100.00;102227.38;6166265;23;20032;-75
2022/04/03 08:25:17;;;;;;;7.00;1.60;;;;;;;6.66;100.00;102219.63;6143967;23;20025;-75
2022/04/03 08:27:54;;;;;;;3.25;1.40;;;;;;;6.42;100.00;102220.38;6178031;23;20013;-75
2022/04/03 08:30:25;;;;;;;3.30;1.48;;;;;;;6.37;100.00;102227.13;6159074;23;20025;-74
2022/04/03 08:32:54;;;;;;;4.95;1.40;;;;;;;6.60;100.00;102222.88;6150849;23;20135;-74
2022/04/03 08:35:26;;;;;;;4.63;1.30;;;;;;;6.70;100.00;102211.94;6134852;23;20025;-73
2022/04/03 08:37:55;;;;;;;4.15;1.13;;;;;;;6.67;100.00;102222.28;6140774;23;20200;-76
2022/04/03 08:40:25;;;;;;;7.90;1.45;;;;;;;6.62;100.00;102227.34;6146246;23;20020;-75
2022/04/03 08:42:55;;;;;;;3.83;1.43;;;;;;;6.50;100.00;102229.44;6116726;23;20021;-74
2022/04/03 08:45:24;;;;;;;8.57;1.77;;;;;;;6.36;100.00;102223.63;6127082;23;20438;-74
2022/04/03 08:47:57;;;;;;;3.38;1.23;;;;;;;6.37;100.00;102221.88;6120797;23;20021;-74
2022/04/03 08:50:28;;;;;;;3.17;1.33;;;;;;;6.35;100.00;102224.47;6153856;23;20302;-74
2022/04/03 08:53:01;;;;;;;3.00;1.50;;;;;;;6.29;100.00;102223.28;6138717;23;20025;-74
2022/04/03 08:55:31;;;;;;;3.60;1.23;;;;;;;6.18;100.00;102236.84;6144072;23;20295;-74
2022/04/03 08:58:02;;;;;;;1.70;1.30;;;;;;;6.19;100.00;102216.78;6176935;23;20040;-75
2022/04/03 09:00:32;;;;;;;3.15;1.08;;;;;;;6.32;100.00;102226.06;6182756;23;20020;-74
2022/04/03 09:03:04;;;;;;;3.15;1.23;;;;;;;6.42;99.13;102222.97;6118132;23;20434;-74
2022/04/03 09:05:37;;;;;;;2.70;1.10;;;;;;;6.62;99.69;102224.72;6157572;23;20025;-74
2022/04/03 09:08:07;;;;;;;2.92;1.48;;;;;;;6.71;97.86;102215.44;6142724;23;20013;-74
2022/04/03 09:10:36;;;;;;;1.27;0.95;;;;;;;6.64;96.16;102223.06;6127330;23;20020;-74
2022/04/03 09:13:05;;;;;;;3.55;1.52;;;;;;;6.64;95.27;102228.28;6146834;23;20043;-74
2022/04/03 09:15:34;;;;;;;3.47;1.42;;;;;;;6.66;95.47;102227.47;6183231;23;20477;-74
2022/04/03 09:18:04;;;;;;;2.03;1.10;;;;;;;6.75;96.35;102228.75;6126454;23;20025;-74
2022/04/03 09:20:37;;;;;;;1.75;0.80;;;;;;;6.88;94.75;102217.03;6179411;23;20025;-74
2022/04/03 09:23:08;;;;;;;3.13;1.00;;;;;;;7.01;93.85;102218.41;6117857;23;20047;-76
2022/04/03 09:25:41;;;;;;;4.32;0.95;;;;;;;7.02;93.31;102215.84;6158881;23;20025;-75
2022/04/03 09:28:13;;;;;;;7.32;1.23;;;;;;;7.07;93.39;102212.50;6116383;23;20021;-74
2022/04/03 09:30:45;;;;;;;2.17;0.90;;;;;;;7.15;94.16;102216.34;6118600;23;20028;-74
2022/04/03 09:33:20;;;;;;;4.25;1.13;;;;;;;7.25;91.30;102213.22;6155245;23;20232;-74
2022/04/03 09:36:03;;;;;;;3.20;1.05;;;;;;;7.27;89.55;102210.66;6151599;23;20028;-75
2022/04/03 09:38:35;;;;;;;3.17;1.40;;;;;;;7.28;89.67;102213.34;6148224;23;20021;-74
2022/04/03 09:41:05;;;;;;;7.68;1.85;;;;;;;7.38;90.76;102210.25;6152614;23;20522;-75
2022/04/03 09:43:38;;;;;;;3.75;1.20;;;;;;;7.50;91.00;102209.81;6127975;23;20404;-75
2022/04/03 09:46:12;;;;;;;4.13;1.00;;;;;;;7.43;90.14;102210.44;6180154;23;20025;-74
2022/04/03 09:48:44;;;;;;;2.13;0.90;;;;;;;7.24;87.85;102211.47;6131651;23;20020;-74
2022/04/03 09:51:19;;;;;;;5.38;1.10;;;;;;;7.19;90.27;102202.50;6143321;23;20766;-74
2022/04/03 09:53:49;;;;;;;2.15;1.33;;;;;;;7.28;91.82;102197.63;6147644;23;20336;-75
2022/04/03 09:56:20;;;;;;;3.00;1.23;;;;;;;7.22;90.37;102210.47;6185006;23;20028;-74
2022/04/03 09:58:52;;;;;;;2.85;1.17;;;;;;;7.03;89.54;102207.16;6177361;23;20021;-74
2022/04/03 10:01:26;;;;;;;2.38;1.38;;;;;;;6.87;90.29;102210.00;6183123;23;20024;-75
2022/04/03 10:04:00;;;;;;;2.08;0.93;;;;;;;6.82;91.02;102201.03;6131633;23;20036;-75
2022/04/03 10:06:30;;;;;;;5.25;1.10;;;;;;;6.96;91.90;102202.50;6181117;23;20021;-74
2022/04/03 10:08:59;;;;;;;4.68;1.33;;;;;;;7.11;92.17;102194.34;6091152;23;20235;-74
2022/04/03 10:11:29;;;;;;;3.75;1.02;;;;;;;7.16;91.49;102198.03;6134646;23;20028;-72
2022/04/03 10:13:58;;;;;;;3.47;1.20;;;;;;;7.17;90.96;102191.97;6124564;23;20250;-72
2022/04/03 10:16:26;;;;;;;1.30;1.10;;;;;;;7.21;89.36;102200.84;6182762;23;20021;-72
2022/04/03 10:18:56;;;;;;;2.30;1.00;;;;;;;7.29;88.30;102199.41;6155581;23;20446;-72
2022/04/03 10:21:32;;;;;;;2.83;1.10;;;;;;;7.28;87.94;102189.75;6151262;23;20457;-72
2022/04/03 10:24:09;;;;;;;4.45;1.05;;;;;;;7.20;87.11;102194.72;6155069;23;20028;-72
2022/04/03 10:26:40;;;;;;;4.13;1.10;;;;;;;7.18;87.82;102190.22;6126446;23;20230;-72
2022/04/03 10:29:10;;;;;;;5.68;1.67;;;;;;;7.25;87.53;102189.63;6144231;23;20021;-74
2022/04/03 10:31:53;;;;;;;2.13;1.52;;;;;;;7.35;86.94;102185.63;6148794;23;20379;-73
2022/04/03 10:34:22;;;;;;;4.50;1.73;;;;;;;7.30;87.32;102185.47;6128419;23;20036;-72
2022/04/03 10:36:51;;;;;;;2.78;1.20;;;;;;;7.26;87.84;102185.28;6129188;23;20028;-80
2022/04/03 10:39:28;;;;;;;2.45;1.02;;;;;;;7.27;87.02;102181.81;6165860;23;20024;-73
2022/04/03 10:42:20;;;;;;;2.90;1.40;;;;;;;7.15;84.87;102180.53;6186177;23;20025;-74
2022/04/03 10:45:11;;;;;;;5.93;1.25;;;;;;;7.25;85.72;102179.13;6176742;23;20032;-74
2022/04/03 10:47:42;;;;;;;4.28;1.05;;;;;;;7.41;84.62;102176.28;6174256;23;20024;-74
2022/04/03 10:50:22;;;;;;;1.42;1.00;;;;;;;7.60;83.31;102175.22;6128297;23;20025;-74
2022/04/03 10:52:55;;;;;;;3.47;1.10;;;;;;;7.74;81.20;102173.09;6150001;23;20024;-74
2022/04/03 10:55:29;;;;;;;2.00;1.10;;;;;;;7.98;82.69;102161.69;6157659;23;20025;-74
2022/04/03 10:58:04;;;;;;;4.30;1.20;;;;;;;8.27;82.34;102174.91;6123023;23;20021;-74
2022/04/03 11:00:35;;;;;;;5.47;1.58;;;;;;;8.45;80.46;102165.06;6146931;23;20025;-74
2022/04/03 11:03:13;;;;;;;1.77;1.10;;;;;;;8.39;78.97;102170.97;6150921;23;20035;-73
2022/04/03 11:05:43;;;;;;;2.47;1.00;;;;;;;8.23;80.24;102183.53;6117260;23;20238;-74
2022/04/03 11:08:12;;;;;;;9.77;1.33;;;;;;;7.91;80.49;102175.44;6177730;23;20025;-74
2022/04/03 11:10:48;;;;;;;6.30;1.27;;;;;;;7.62;80.48;102175.28;6112323;23;20476;-74
2022/04/03 11:13:18;;;;;;;3.35;1.40;;;;;;;7.44;81.53;102177.22;6151201;23;20017;-74
2022/04/03 11:15:57;;;;;;;1.85;1.40;;;;;;;7.32;82.57;102177.66;6147929;23;20036;-74
2022/04/03 11:18:39;;;;;;;2.72;1.40;;;;;;;7.34;84.25;102176.00;6135055;23;20036;-74
2022/04/03 11:21:33;;;;;;;3.97;1.52;;;;;;;7.59;85.10;102168.16;6150211;23;20025;-74
2022/04/03 11:24:09;;;;;;;1.58;0.90;;;;;;;7.79;82.81;102174.16;6173908;23;20032;-74
2022/04/03 11:26:40;;;;;;;4.93;1.40;;;;;;;7.87;82.58;102163.94;6162065;23;20973;-75
2022/04/03 11:29:10;;;;;;;3.47;1.30;;;;;;;8.05;83.23;102158.41;6151919;23;20028;-74
2022/04/03 11:31:38;;;;;;;4.82;1.60;;;;;;;8.27;82.46;102151.28;6119136;23;20021;-73
2022/04/03 11:34:08;;;;;;;2.30;1.50;;;;;;;8.47;81.62;102147.63;6176127;23;20358;-74
2022/04/03 11:36:36;;;;;;;3.30;1.17;;;;;;;8.56;79.79;102147.91;6149308;23;20505;-74
2022/04/03 11:39:09;;;;;;;2.30;1.27;;;;;;;8.67;79.85;102149.97;6119688;23;20457;-74